Time;durP1;ratioP1;P1;durP2;ratioP2;P2;SDS_P1;SDS_P2;PMS_P1;PMS_P2;Temp;Humidity;BMP_temperature;BMP_pressure;BME280_temperature;BME280_humidity;BME280_pressure;Samples;Min_cycle;Max_cycle;Signal;HPM_P1;HPM_P2
2022/09/06 00:01:15;;;;;;;3.03;1.08;;;;;;;;;;4998019;28;20040;-91
2022/09/06 00:03:43;;;;;;;2.40;1.05;;;;;;;;;;4998669;28;20038;-91
2022/09/06 00:06:14;;;;;;;3.42;1.38;;;;;;;;;;4998262;28;20090;-91
2022/09/06 00:08:42;;;;;;;3.25;1.20;;;;;;;;;;4999931;28;20026;-90
2022/09/06 00:11:08;;;;;;;2.60;1.10;;;;;;;;;;5002323;28;20034;-91
2022/09/06 00:13:34;;;;;;;2.17;0.90;;;;;;;;;;5002019;28;20454;-90
2022/09/06 00:16:11;;;;;;;2.15;0.93;;;;;;;;;;5011947;28;20025;-90
2022/09/06 00:18:40;;;;;;;2.22;1.00;;;;;;;;;;4989324;28;20045;-91
2022/09/06 00:21:19;;;;;;;3.33;1.02;;;;;;;;;;5021388;28;20455;-91
2022/09/06 00:23:47;;;;;;;2.50;0.90;;;;;;;;;;4989104;28;20037;-90
2022/09/06 00:26:19;;;;;;;2.67;1.20;;;;;;;;;;5021431;28;20029;-89
2022/09/06 00:28:44;;;;;;;;;;;;;;;;;;5001897;28;20045;-90
2022/09/06 00:31:21;;;;;;;2.03;1.15;;;;;;;;;;5001454;28;19913;-89
2022/09/06 00:33:51;;;;;;;1.10;0.65;;;;;;;;;;5001709;28;20061;-89
2022/09/06 00:36:18;;;;;;;1.92;0.95;;;;;;;;;;5001737;28;20044;-89
2022/09/06 00:38:44;;;;;;;2.72;0.93;;;;;;;;;;5004583;28;20040;-90
2022/09/06 00:41:10;;;;;;;2.97;0.90;;;;;;;;;;5020680;28;20030;-90
2022/09/06 00:43:37;;;;;;;1.98;0.80;;;;;;;;;;5020709;28;20100;-89
2022/09/06 00:46:06;;;;;;;2.95;1.05;;;;;;;;;;5029190;28;20037;-89
2022/09/06 00:48:33;;;;;;;1.98;0.90;;;;;;;;;;5004922;28;20044;-89
2022/09/06 00:51:04;;;;;;;2.08;1.10;;;;;;;;;;5004633;28;20426;-88
2022/09/06 00:53:36;;;;;;;2.75;1.13;;;;;;;;;;5004563;28;20029;-87
2022/09/06 00:56:03;;;;;;;3.63;1.00;;;;;;;;;;4988268;28;20036;-89
2022/09/06 00:58:29;;;;;;;2.60;0.90;;;;;;;;;;5003885;28;20045;-89
2022/09/06 01:00:56;;;;;;;2.10;1.00;;;;;;;;;;5003823;28;20115;-86
2022/09/06 01:03:23;;;;;;;2.53;0.93;;;;;;;;;;5004221;28;20033;-86
2022/09/06 01:05:57;;;;;;;1.83;0.80;;;;;;;;;;5004182;28;20503;-86
2022/09/06 01:08:58;;;;;;;2.13;0.55;;;;;;;;;;5020376;28;20430;-86
2022/09/06 01:11:43;;;;;;;1.98;0.95;;;;;;;;;;5012847;28;20410;-88
2022/09/06 01:14:47;;;;;;;1.98;0.90;;;;;;;;;;5019792;28;20186;-87
2022/09/06 01:17:42;;;;;;;1.98;0.93;;;;;;;;;;5000309;28;20084;-87
2022/09/06 01:20:29;;;;;;;1.98;1.02;;;;;;;;;;4984776;28;20044;-87
2022/09/06 01:23:10;;;;;;;2.90;1.27;;;;;;;;;;5011160;28;20474;-87
2022/09/06 01:25:42;;;;;;;1.95;0.85;;;;;;;;;;5016538;28;20132;-86
2022/09/06 01:28:25;;;;;;;;;;;;;;;;;;5016652;28;20116;-87
2022/09/06 01:31:40;;;;;;;2.03;0.90;;;;;;;;;;5000141;28;20384;-87
2022/09/06 01:34:14;;;;;;;1.92;1.05;;;;;;;;;;4995109;28;20459;-87
2022/09/06 01:37:01;;;;;;;4.22;1.05;;;;;;;;;;5000610;28;20522;-87
2022/09/06 01:39:31;;;;;;;2.47;1.27;;;;;;;;;;5032541;28;20451;-87
2022/09/06 01:41:57;;;;;;;3.42;1.50;;;;;;;;;;4999653;28;20045;-87
2022/09/06 01:44:26;;;;;;;3.50;1.02;;;;;;;;;;4999267;28;20034;-86
2022/09/06 01:47:03;;;;;;;1.90;1.08;;;;;;;;;;5017723;28;20045;-87
2022/09/06 01:50:03;;;;;;;2.72;1.10;;;;;;;;;;4987820;28;20107;-87
2022/09/06 01:53:09;;;;;;;3.85;1.25;;;;;;;;;;5014465;28;20507;-87
2022/09/06 01:55:47;;;;;;;3.13;1.08;;;;;;;;;;5005467;28;20037;-87
2022/09/06 01:58:13;;;;;;;1.98;0.98;;;;;;;;;;4987581;28;20099;-86
2022/09/06 02:00:47;;;;;;;2.42;0.93;;;;;;;;;;5035889;28;20033;-87
2022/09/06 02:03:40;;;;;;;2.20;1.02;;;;;;;;;;4986631;28;20538;-87
2022/09/06 02:06:10;;;;;;;2.38;0.93;;;;;;;;;;5019259;28;20036;-87
2022/09/06 02:08:40;;;;;;;3.38;0.80;;;;;;;;;;4986496;28;20041;-87
2022/09/06 02:11:08;;;;;;;2.83;1.10;;;;;;;;;;5018751;28;20388;-87
2022/09/06 02:13:58;;;;;;;3.72;1.15;;;;;;;;;;4986419;28;20068;-87
2022/09/06 02:16:25;;;;;;;2.90;1.02;;;;;;;;;;4990652;28;20106;-87
2022/09/06 02:18:58;;;;;;;3.63;1.10;;;;;;;;;;5003121;28;20403;-87
2022/09/06 02:21:33;;;;;;;2.20;0.98;;;;;;;;;;5003438;28;20060;-87
2022/09/06 02:23:59;;;;;;;2.30;0.90;;;;;;;;;;5002001;28;20037;-87
2022/09/06 02:26:29;;;;;;;2.05;1.00;;;;;;;;;;5002052;28;20033;-87
2022/09/06 02:28:56;;;;;;;2.97;1.00;;;;;;;;;;5002378;28;20136;-87
2022/09/06 02:32:05;;;;;;;4.65;1.42;;;;;;;;;;5002441;28;20408;-87
2022/09/06 02:34:33;;;;;;;3.60;1.10;;;;;;;;;;5017555;28;20759;-86
2022/09/06 02:37:00;;;;;;;1.95;1.05;;;;;;;;;;5002145;28;20035;-87
2022/09/06 02:39:25;;;;;;;2.05;1.15;;;;;;;;;;5001831;28;20053;-87
2022/09/06 02:41:54;;;;;;;2.13;1.20;;;;;;;;;;5002045;28;20033;-87
2022/09/06 02:44:21;;;;;;;1.95;1.00;;;;;;;;;;5018575;28;20471;-87
2022/09/06 02:46:47;;;;;;;1.90;0.98;;;;;;;;;;5002144;28;20071;-87
2022/09/06 02:49:12;;;;;;;1.80;1.00;;;;;;;;;;5001710;28;20061;-87
2022/09/06 02:51:39;;;;;;;2.20;1.10;;;;;;;;;;5001936;28;20025;-87
2022/09/06 02:54:06;;;;;;;2.30;1.02;;;;;;;;;;5001811;28;20043;-87
2022/09/06 02:56:33;;;;;;;1.40;0.82;;;;;;;;;;5002418;28;20033;-87
2022/09/06 02:59:02;;;;;;;1.80;1.05;;;;;;;;;;5001596;28;20036;-87
2022/09/06 03:01:29;;;;;;;1.35;0.88;;;;;;;;;;4986060;28;20068;-87
2022/09/06 03:03:56;;;;;;;3.28;1.45;;;;;;;;;;5001790;28;20127;-87
2022/09/06 03:06:24;;;;;;;4.15;1.35;;;;;;;;;;5018465;28;20036;-88
2022/09/06 03:08:51;;;;;;;2.75;1.25;;;;;;;;;;5001677;28;20060;-87
2022/09/06 03:11:19;;;;;;;1.70;0.90;;;;;;;;;;5017577;28;20037;-87
2022/09/06 03:13:49;;;;;;;2.80;1.17;;;;;;;;;;5018050;28;20041;-87
2022/09/06 03:16:15;;;;;;;1.92;1.02;;;;;;;;;;5001871;28;20025;-87
2022/09/06 03:18:41;;;;;;;2.30;0.93;;;;;;;;;;5001574;28;20037;-87
2022/09/06 03:21:06;;;;;;;2.78;1.20;;;;;;;;;;5017873;28;20029;-86
2022/09/06 03:23:38;;;;;;;1.65;0.80;;;;;;;;;;5017525;28;20033;-87
2022/09/06 03:26:06;;;;;;;2.33;1.10;;;;;;;;;;5002126;28;20415;-86
2022/09/06 03:28:34;;;;;;;1.75;0.88;;;;;;;;;;5002061;28;20052;-87
2022/09/06 03:31:01;;;;;;;2.38;1.10;;;;;;;;;;5001945;28;20056;-87
2022/09/06 03:33:28;;;;;;;2.05;1.08;;;;;;;;;;5017943;28;20123;-87
2022/09/06 03:35:56;;;;;;;2.08;1.05;;;;;;;;;;5002177;28;20035;-87
2022/09/06 03:38:23;;;;;;;2.85;0.98;;;;;;;;;;5001885;28;20041;-87
2022/09/06 03:40:51;;;;;;;1.67;1.02;;;;;;;;;;5001677;28;20087;-87
2022/09/06 03:43:17;;;;;;;1.55;0.80;;;;;;;;;;4986034;28;20148;-88
2022/09/06 03:45:55;;;;;;;3.20;0.88;;;;;;;;;;5002123;28;20108;-87
2022/09/06 03:48:23;;;;;;;1.73;0.85;;;;;;;;;;5002020;28;20045;-87
2022/09/06 03:50:53;;;;;;;1.63;0.88;;;;;;;;;;5030982;28;20056;-87
2022/09/06 03:53:18;;;;;;;2.60;1.00;;;;;;;;;;5005004;28;20067;-87
2022/09/06 03:55:49;;;;;;;3.67;1.00;;;;;;;;;;4989328;28;20064;-87
2022/09/06 03:58:16;;;;;;;2.30;0.93;;;;;;;;;;5005337;28;20040;-86
2022/09/06 04:00:42;;;;;;;2.17;1.13;;;;;;;;;;5005267;28;20700;-87
2022/09/06 04:03:07;;;;;;;1.35;0.80;;;;;;;;;;4988569;28;20025;-88
2022/09/06 04:05:33;;;;;;;3.05;0.77;;;;;;;;;;4988613;28;20037;-87
2022/09/06 04:07:59;;;;;;;2.88;0.82;;;;;;;;;;5004505;28;20530;-87
2022/09/06 04:10:25;;;;;;;1.17;0.70;;;;;;;;;;4988659;28;20045;-87
2022/09/06 04:12:50;;;;;;;1.48;0.75;;;;;;;;;;4988487;28;20407;-87
2022/09/06 04:15:18;;;;;;;1.60;0.82;;;;;;;;;;4985435;28;20115;-87
2022/09/06 04:17:45;;;;;;;3.03;0.93;;;;;;;;;;4985837;28;20025;-87
2022/09/06 04:20:12;;;;;;;2.17;1.08;;;;;;;;;;5017964;28;20415;-87
2022/09/06 04:22:39;;;;;;;2.03;0.70;;;;;;;;;;5017335;28;20068;-87
2022/09/06 04:25:05;;;;;;;2.90;1.23;;;;;;;;;;5001547;28;20034;-87
2022/09/06 04:27:34;;;;;;;1.73;0.70;;;;;;;;;;5001355;28;20104;-87
2022/09/06 04:30:03;;;;;;;2.28;0.93;;;;;;;;;;5017832;28;20040;-86
2022/09/06 04:32:31;;;;;;;2.00;0.82;;;;;;;;;;5000935;28;20042;-87
2022/09/06 04:34:59;;;;;;;3.10;1.20;;;;;;;;;;5001026;28;20132;-85
2022/09/06 04:37:25;;;;;;;2.60;0.95;;;;;;;;;;5001152;28;20031;-87
2022/09/06 04:39:51;;;;;;;2.22;1.02;;;;;;;;;;5013902;28;20036;-87
2022/09/06 04:42:18;;;;;;;1.63;0.85;;;;;;;;;;5004045;28;20090;-86
2022/09/06 04:44:45;;;;;;;2.17;1.10;;;;;;;;;;5004456;28;20510;-87
2022/09/06 04:47:13;;;;;;;3.28;1.20;;;;;;;;;;4988474;28;20487;-87
2022/09/06 04:49:41;;;;;;;2.65;1.20;;;;;;;;;;5004326;28;20044;-86
2022/09/06 04:52:07;;;;;;;1.83;1.45;;;;;;;;;;5003765;28;20044;-87
2022/09/06 04:54:36;;;;;;;1.30;0.80;;;;;;;;;;5020285;28;20036;-87
2022/09/06 04:57:03;;;;;;;3.15;1.23;;;;;;;;;;5020454;28;20051;-87
2022/09/06 04:59:35;;;;;;;2.17;1.00;;;;;;;;;;5009056;28;20029;-87
2022/09/06 05:02:01;;;;;;;1.63;0.90;;;;;;;;;;4987704;28;20029;-88
2022/09/06 05:04:28;;;;;;;1.67;0.85;;;;;;;;;;5003700;28;20571;-87
2022/09/06 05:07:04;;;;;;;3.20;1.10;;;;;;;;;;5020460;28;20036;-90
2022/09/06 05:09:31;;;;;;;2.15;1.00;;;;;;;;;;5020365;28;20479;-89
2022/09/06 05:11:57;;;;;;;2.00;0.90;;;;;;;;;;5003609;28;20553;-87
2022/09/06 05:14:25;;;;;;;2.35;1.08;;;;;;;;;;5020152;28;20037;-86
2022/09/06 05:16:53;;;;;;;3.50;0.93;;;;;;;;;;5019500;28;20055;-86
2022/09/06 05:19:20;;;;;;;4.20;0.98;;;;;;;;;;5020055;28;20483;-85
2022/09/06 05:21:52;;;;;;;5.13;1.05;;;;;;;;;;5019792;28;20137;-86
2022/09/06 05:24:19;;;;;;;4.80;0.90;;;;;;;;;;5034592;28;20424;-88
2022/09/06 05:26:45;;;;;;;2.55;1.20;;;;;;;;;;5020129;28;20036;-89
2022/09/06 05:29:13;;;;;;;1.73;0.63;;;;;;;;;;5020485;28;20037;-91
2022/09/06 05:31:40;;;;;;;4.35;1.45;;;;;;;;;;5020491;28;20438;-88
2022/09/06 05:34:05;;;;;;;7.93;1.50;;;;;;;;;;5019407;28;20120;-88
2022/09/06 05:36:40;;;;;;;5.07;1.40;;;;;;;;;;5020177;28;20104;-90
2022/09/06 05:39:07;;;;;;;8.77;1.30;;;;;;;;;;5020955;28;20040;-89
2022/09/06 05:41:33;;;;;;;8.15;1.90;;;;;;;;;;4987354;28;20037;-91
2022/09/06 05:43:59;;;;;;;10.80;2.90;;;;;;;;;;5003677;28;20037;-90
2022/09/06 05:46:25;;;;;;;14.80;8.95;;;;;;;;;;5019201;28;20035;-88
2022/09/06 05:49:06;;;;;;;8.55;4.35;;;;;;;;;;5003919;28;20041;-88
2022/09/06 05:51:39;;;;;;;6.30;3.10;;;;;;;;;;5021040;28;20136;-88
2022/09/06 05:54:06;;;;;;;5.20;2.75;;;;;;;;;;5016698;28;20053;-87
2022/09/06 05:56:33;;;;;;;17.00;13.38;;;;;;;;;;4968269;28;20120;-89
2022/09/06 05:58:59;;;;;;;140.00;72.20;;;;;;;;;;4983529;28;20041;-85
2022/09/06 06:01:26;;;;;;;62.50;35.55;;;;;;;;;;4983248;28;20033;-87
2022/09/06 06:03:53;;;;;;;40.25;20.33;;;;;;;;;;4982328;28;20045;-87
2022/09/06 06:06:19;;;;;;;18.17;7.95;;;;;;;;;;4998174;28;20025;-88
2022/09/06 06:08:44;;;;;;;9.43;4.13;;;;;;;;;;4998379;28;20124;-87
2022/09/06 06:11:10;;;;;;;15.30;6.63;;;;;;;;;;4998331;28;20036;-86
2022/09/06 06:13:38;;;;;;;15.80;7.80;;;;;;;;;;4982530;28;20037;-85
2022/09/06 06:16:07;;;;;;;6.53;1.90;;;;;;;;;;4992501;28;20506;-83
2022/09/06 06:18:33;;;;;;;3.53;1.60;;;;;;;;;;5016282;28;20044;-84
2022/09/06 06:21:10;;;;;;;3.33;1.60;;;;;;;;;;5016337;28;20029;-84
2022/09/06 06:23:36;;;;;;;4.43;1.67;;;;;;;;;;5033891;28;20055;-85
2022/09/06 06:26:01;;;;;;;2.15;1.38;;;;;;;;;;5000153;28;20131;-83
2022/09/06 06:28:28;;;;;;;3.17;1.20;;;;;;;;;;5001707;28;20120;-84
2022/09/06 06:30:53;;;;;;;2.83;1.35;;;;;;;;;;5017877;28;20029;-83
2022/09/06 06:33:19;;;;;;;3.05;1.40;;;;;;;;;;5017350;28;20041;-84
2022/09/06 06:35:58;;;;;;;4.07;1.30;;;;;;;;;;5018040;28;20025;-85
2022/09/06 06:38:36;;;;;;;4.50;1.42;;;;;;;;;;5001553;28;20064;-84
2022/09/06 06:41:04;;;;;;;3.05;1.20;;;;;;;;;;4985830;28;20029;-83
2022/09/06 06:43:36;;;;;;;3.65;1.42;;;;;;;;;;5001825;28;20086;-84
2022/09/06 06:46:09;;;;;;;3.80;1.33;;;;;;;;;;4982335;28;20037;-85
2022/09/06 06:48:39;;;;;;;3.45;1.38;;;;;;;;;;5015084;28;20447;-86
2022/09/06 06:51:05;;;;;;;18.83;12.80;;;;;;;;;;4982087;28;20037;-85
2022/09/06 06:53:31;;;;;;;16.35;13.65;;;;;;;;;;4998316;28;20495;-86
2022/09/06 06:55:58;;;;;;;30.42;24.17;;;;;;;;;;5015120;28;20124;-87
2022/09/06 06:58:23;;;;;;;18.80;14.40;;;;;;;;;;4998889;28;20170;-87
2022/09/06 07:00:49;;;;;;;10.80;6.03;;;;;;;;;;5014801;28;20029;-87
2022/09/06 07:03:17;;;;;;;7.25;4.05;;;;;;;;;;5015039;28;20041;-86
2022/09/06 07:05:43;;;;;;;6.15;2.13;;;;;;;;;;5015152;28;20029;-86
2022/09/06 07:08:09;;;;;;;4.15;1.70;;;;;;;;;;4998613;28;20035;-86
2022/09/06 07:10:38;;;;;;;3.63;1.58;;;;;;;;;;4998667;28;20037;-88
2022/09/06 07:13:04;;;;;;;3.55;1.00;;;;;;;;;;5015294;28;20109;-88
2022/09/06 07:15:31;;;;;;;1.55;0.82;;;;;;;;;;5018290;28;20037;-86
2022/09/06 07:17:57;;;;;;;4.65;1.20;;;;;;;;;;5018425;28;20404;-88
2022/09/06 07:20:24;;;;;;;2.35;0.80;;;;;;;;;;4986080;28;20115;-89
2022/09/06 07:23:04;;;;;;;1.75;0.70;;;;;;;;;;5002185;28;20033;-90
2022/09/06 07:25:30;;;;;;;3.85;0.90;;;;;;;;;;4985599;28;20112;-90
2022/09/06 07:27:57;;;;;;;1.88;0.75;;;;;;;;;;4985571;28;20065;-90
2022/09/06 07:30:26;;;;;;;1.00;0.60;;;;;;;;;;4986240;28;20025;-88
2022/09/06 07:32:53;;;;;;;2.15;0.98;;;;;;;;;;5002151;28;20044;-88
2022/09/06 07:35:22;;;;;;;1.80;0.95;;;;;;;;;;5002075;28;20391;-89
2022/09/06 07:37:54;;;;;;;2.50;1.30;;;;;;;;;;5001920;28;20044;-89
2022/09/06 07:40:22;;;;;;;;;;;;;;;;;;4996115;28;20410;-90
2022/09/06 07:42:49;;;;;;;1.90;1.00;;;;;;;;;;4982196;28;19964;-91
2022/09/06 07:45:15;;;;;;;2.65;1.00;;;;;;;;;;5034527;28;20551;-91
2022/09/06 07:47:42;;;;;;;3.85;1.30;;;;;;;;;;5002209;28;20025;-91
2022/09/06 07:50:13;;;;;;;4.05;0.80;;;;;;;;;;5018669;28;20033;-89
2022/09/06 07:52:41;;;;;;;4.65;1.10;;;;;;;;;;5001936;28;20040;-89
2022/09/06 07:55:13;;;;;;;2.72;0.98;;;;;;;;;;5002273;28;20095;-90
2022/09/06 07:57:43;;;;;;;4.28;1.10;;;;;;;;;;5002034;28;20040;-92
2022/09/06 08:00:11;;;;;;;3.15;0.65;;;;;;;;;;5018738;28;20052;-91
2022/09/06 08:02:41;;;;;;;1.80;0.50;;;;;;;;;;5019229;28;20422;-92
2022/09/06 08:05:08;;;;;;;2.53;0.98;;;;;;;;;;5019805;28;20047;-92
2022/09/06 08:07:34;;;;;;;2.58;0.90;;;;;;;;;;4986904;28;20029;-90
2022/09/06 08:10:02;;;;;;;3.03;0.63;;;;;;;;;;5003810;28;20479;-91
2022/09/06 08:12:29;;;;;;;2.55;0.80;;;;;;;;;;5003554;28;20381;-91
2022/09/06 08:14:55;;;;;;;2.55;0.93;;;;;;;;;;5002663;28;20033;-91
2022/09/06 08:17:23;;;;;;;2.42;0.82;;;;;;;;;;5003240;28;20137;-92
2022/09/06 08:19:54;;;;;;;4.28;1.80;;;;;;;;;;5003153;28;20072;-91
2022/09/06 08:22:23;;;;;;;6.55;2.38;;;;;;;;;;5020350;28;20044;-92
2022/09/06 08:24:50;;;;;;;7.47;2.58;;;;;;;;;;5003336;28;20033;-91
2022/09/06 08:27:27;;;;;;;8.75;2.95;;;;;;;;;;5003865;28;20091;-92
2022/09/06 08:29:57;;;;;;;8.00;2.65;;;;;;;;;;5003827;28;20474;-91
2022/09/06 08:32:27;;;;;;;7.65;3.00;;;;;;;;;;5021763;28;20647;-92
2022/09/06 08:34:55;;;;;;;9.15;3.22;;;;;;;;;;4989544;28;20111;-91
2022/09/06 08:37:23;;;;;;;6.97;2.33;;;;;;;;;;5006036;28;20087;-92
2022/09/06 08:39:52;;;;;;;6.18;1.50;;;;;;;;;;5002123;28;20038;-91
2022/09/06 08:42:23;;;;;;;4.40;1.27;;;;;;;;;;5019347;28;20029;-92
2022/09/06 08:45:11;;;;;;;5.63;1.30;;;;;;;;;;5018380;28;20037;-91
2022/09/06 08:47:42;;;;;;;3.78;1.20;;;;;;;;;;4986372;28;20034;-92
2022/09/06 08:50:08;;;;;;;2.35;0.88;;;;;;;;;;5003360;28;20049;-92
2022/09/06 08:53:00;;;;;;;2.80;1.08;;;;;;;;;;5002548;28;20034;-92
2022/09/06 08:55:33;;;;;;;2.38;0.98;;;;;;;;;;5034514;28;20049;-92
2022/09/06 08:58:30;;;;;;;2.78;1.40;;;;;;;;;;5001275;28;20550;-90
2022/09/06 09:00:59;;;;;;;2.78;1.20;;;;;;;;;;4985449;28;20033;-90
2022/09/06 09:03:36;;;;;;;3.75;1.08;;;;;;;;;;5002043;28;20044;-90
2022/09/06 09:06:04;;;;;;;2.85;1.20;;;;;;;;;;5002342;28;20045;-90
2022/09/06 09:09:07;;;;;;;3.60;1.00;;;;;;;;;;5001852;28;20038;-90
2022/09/06 09:11:35;;;;;;;4.72;1.00;;;;;;;;;;5001301;28;20458;-91
2022/09/06 09:14:12;;;;;;;2.58;0.80;;;;;;;;;;4986186;28;20029;-89
2022/09/06 09:16:41;;;;;;;2.85;1.10;;;;;;;;;;5033743;28;20399;-90
2022/09/06 09:19:11;;;;;;;4.93;0.80;;;;;;;;;;4989748;28;20036;-90
2022/09/06 09:21:39;;;;;;;2.78;0.90;;;;;;;;;;5038131;28;20560;-91
2022/09/06 09:24:10;;;;;;;3.17;0.93;;;;;;;;;;4989051;28;20033;-90
2022/09/06 09:26:54;;;;;;;4.97;1.10;;;;;;;;;;5022183;28;20053;-89
2022/09/06 09:29:25;;;;;;;3.60;1.13;;;;;;;;;;4989585;28;20031;-89
2022/09/06 09:32:04;;;;;;;2.83;0.90;;;;;;;;;;5004496;28;20472;-90
2022/09/06 09:34:39;;;;;;;2.60;1.08;;;;;;;;;;5004468;28;20131;-92
2022/09/06 09:37:51;;;;;;;3.08;1.10;;;;;;;;;;5036640;28;20090;-92
2022/09/06 09:41:26;;;;;;;3.08;0.90;;;;;;;;;;5052985;28;20153;-92
2022/09/06 09:44:48;;;;;;;5.68;1.52;;;;;;;;;;5053054;28;20133;-92
2022/09/06 09:52:19;;;;;;;5.60;1.33;;;;;;;;;;4950974;29;20053;-93
2022/09/06 10:07:17;;;;;;;6.38;1.23;;;;;;;;;;4911589;29;20056;-92
2022/09/06 10:15:07;;;;;;;4.53;1.15;;;;;;;;;;4822568;29;20102;-93
2022/09/06 10:23:11;;;;;;;3.80;1.10;;;;;;;;;;4804299;29;20069;-93
2022/09/06 10:42:09;;;;;;;3.65;0.85;;;;;;;;;;4804377;29;20107;-93
2022/09/06 10:44:56;;;;;;;1.95;0.60;;;;;;;;;;4799201;29;20081;-90
2022/09/06 10:47:52;;;;;;;2.35;0.63;;;;;;;;;;4805268;29;20049;-91
2022/09/06 10:50:36;;;;;;;2.47;0.60;;;;;;;;;;4890799;29;20559;-90
2022/09/06 10:53:40;;;;;;;1.63;0.60;;;;;;;;;;4914283;29;20131;-92
2022/09/06 10:56:28;;;;;;;3.85;1.30;;;;;;;;;;4933481;29;20043;-90
2022/09/06 10:59:36;;;;;;;2.85;1.17;;;;;;;;;;4918037;29;20418;-89
2022/09/06 11:02:21;;;;;;;3.10;1.08;;;;;;;;;;4931011;28;20120;-91
2022/09/06 11:04:51;;;;;;;2.42;1.05;;;;;;;;;;4973213;28;20146;-91
2022/09/06 11:07:36;;;;;;;3.28;0.80;;;;;;;;;;4944003;28;20452;-91
2022/09/06 11:10:05;;;;;;;1.98;0.77;;;;;;;;;;4983947;28;20037;-91
2022/09/06 11:12:34;;;;;;;1.92;0.80;;;;;;;;;;4999223;28;20128;-90
2022/09/06 11:15:04;;;;;;;1.77;0.60;;;;;;;;;;4983115;28;20048;-90
2022/09/06 11:18:11;;;;;;;2.50;1.00;;;;;;;;;;4983426;28;20032;-89
2022/09/06 11:20:55;;;;;;;2.35;0.63;;;;;;;;;;4946794;28;20145;-90
2022/09/06 11:23:39;;;;;;;1.80;0.90;;;;;;;;;;4941349;28;20451;-90
2022/09/06 11:26:09;;;;;;;2.15;0.75;;;;;;;;;;4940432;28;20046;-90
2022/09/06 11:28:47;;;;;;;2.05;0.80;;;;;;;;;;4940589;28;20118;-90
2022/09/06 11:31:30;;;;;;;2.58;0.80;;;;;;;;;;4950653;28;20413;-90
2022/09/06 11:34:08;;;;;;;4.82;0.60;;;;;;;;;;4984473;28;20608;-90
2022/09/06 11:36:51;;;;;;;2.38;0.75;;;;;;;;;;4983080;28;20041;-90
2022/09/06 11:39:37;;;;;;;2.92;0.60;;;;;;;;;;4975652;28;20034;-89
2022/09/06 11:42:07;;;;;;;1.70;0.75;;;;;;;;;;5013959;28;20061;-90
2022/09/06 11:44:52;;;;;;;2.40;0.93;;;;;;;;;;4982037;28;20084;-89
2022/09/06 11:47:34;;;;;;;1.92;0.60;;;;;;;;;;4998322;28;20033;-90
2022/09/06 11:50:17;;;;;;;3.20;0.40;;;;;;;;;;5020535;28;20033;-90
2022/09/06 11:52:58;;;;;;;1.45;0.73;;;;;;;;;;5016987;28;20109;-90
2022/09/06 11:55:39;;;;;;;1.95;0.85;;;;;;;;;;5033733;28;20043;-89
2022/09/06 11:58:27;;;;;;;2.58;0.95;;;;;;;;;;5049975;28;20025;-90
2022/09/06 12:01:25;;;;;;;4.25;2.13;;;;;;;;;;5000865;28;20566;-88
2022/09/06 12:03:51;;;;;;;5.63;2.85;;;;;;;;;;5005492;28;20065;-86
2022/09/06 12:06:31;;;;;;;4.13;2.13;;;;;;;;;;5037501;28;20496;-86
2022/09/06 12:08:57;;;;;;;3.47;2.13;;;;;;;;;;5021235;28;20033;-86
2022/09/06 12:11:25;;;;;;;2.47;1.42;;;;;;;;;;5004743;28;20037;-86
2022/09/06 12:13:54;;;;;;;2.90;1.17;;;;;;;;;;5054679;28;20029;-86
2022/09/06 12:16:20;;;;;;;2.67;1.27;;;;;;;;;;5033999;28;20048;-88
2022/09/06 12:18:45;;;;;;;2.65;1.00;;;;;;;;;;4985269;28;20025;-88
2022/09/06 12:21:35;;;;;;;3.25;1.30;;;;;;;;;;5050196;28;20044;-87
2022/09/06 12:24:01;;;;;;;3.65;1.42;;;;;;;;;;5049981;28;20041;-90
2022/09/06 12:26:49;;;;;;;2.45;1.15;;;;;;;;;;4985305;28;20046;-91
2022/09/06 12:29:15;;;;;;;3.28;0.75;;;;;;;;;;5050960;28;20029;-91
2022/09/06 12:31:55;;;;;;;1.17;0.52;;;;;;;;;;5017893;28;20056;-90
2022/09/06 12:34:26;;;;;;;3.80;0.95;;;;;;;;;;4985261;28;20408;-88
2022/09/06 12:36:55;;;;;;;3.30;0.60;;;;;;;;;;5001997;28;20041;-88
2022/09/06 12:39:20;;;;;;;2.75;1.08;;;;;;;;;;4994077;28;20035;-89
2022/09/06 12:41:48;;;;;;;1.77;0.82;;;;;;;;;;5020723;28;20040;-89
2022/09/06 12:44:14;;;;;;;1.90;0.70;;;;;;;;;;5037778;28;20039;-90
2022/09/06 12:46:44;;;;;;;1.45;0.60;;;;;;;;;;5018772;28;20041;-88
2022/09/06 12:49:10;;;;;;;2.40;1.00;;;;;;;;;;5000932;28;20029;-90
2022/09/06 12:51:37;;;;;;;2.92;0.60;;;;;;;;;;4984806;28;20117;-89
2022/09/06 12:54:14;;;;;;;1.45;0.63;;;;;;;;;;5000815;28;20124;-89
2022/09/06 12:56:39;;;;;;;3.60;0.82;;;;;;;;;;4986114;28;20049;-89
2022/09/06 12:59:24;;;;;;;2.55;0.98;;;;;;;;;;4999637;28;20040;-88
2022/09/06 13:02:04;;;;;;;3.55;1.05;;;;;;;;;;4968014;28;20087;-88
2022/09/06 13:04:44;;;;;;;3.00;0.80;;;;;;;;;;5000974;28;20038;-88
2022/09/06 13:07:13;;;;;;;2.33;0.70;;;;;;;;;;4969347;28;20033;-89
2022/09/06 13:09:41;;;;;;;2.40;1.00;;;;;;;;;;4968744;28;20125;-87
2022/09/06 13:12:21;;;;;;;2.33;0.90;;;;;;;;;;4967934;28;20569;-86
2022/09/06 13:14:51;;;;;;;2.85;1.08;;;;;;;;;;5001948;28;20491;-86
2022/09/06 13:17:25;;;;;;;3.05;1.40;;;;;;;;;;5013309;28;20147;-86
2022/09/06 13:19:51;;;;;;;3.10;1.30;;;;;;;;;;5039662;28;20119;-86
2022/09/06 13:22:37;;;;;;;2.08;0.98;;;;;;;;;;5039420;28;20036;-87
2022/09/06 13:25:04;;;;;;;3.05;1.00;;;;;;;;;;5055563;28;20043;-86
2022/09/06 13:27:29;;;;;;;3.38;1.10;;;;;;;;;;5023190;28;20040;-86
2022/09/06 13:30:06;;;;;;;2.17;0.70;;;;;;;;;;5055771;28;20033;-86
2022/09/06 13:32:32;;;;;;;4.18;1.35;;;;;;;;;;5023191;28;20047;-86
2022/09/06 13:34:57;;;;;;;2.22;1.08;;;;;;;;;;5021687;28;20410;-86
2022/09/06 13:37:25;;;;;;;1.65;0.85;;;;;;;;;;5006127;28;20086;-86
2022/09/06 13:39:50;;;;;;;2.42;1.20;;;;;;;;;;4992731;28;20025;-86
2022/09/06 13:42:42;;;;;;;2.17;0.82;;;;;;;;;;5034943;28;20072;-86
2022/09/06 13:45:20;;;;;;;2.75;1.20;;;;;;;;;;5015774;28;20051;-86
2022/09/06 13:47:45;;;;;;;3.60;1.35;;;;;;;;;;5018703;28;20040;-86
2022/09/06 13:50:11;;;;;;;1.75;0.98;;;;;;;;;;5018915;28;20199;-86
2022/09/06 13:52:36;;;;;;;2.03;0.73;;;;;;;;;;5018478;28;20102;-86
2022/09/06 13:55:02;;;;;;;2.92;1.20;;;;;;;;;;5018566;28;20395;-86
2022/09/06 13:57:27;;;;;;;3.15;1.23;;;;;;;;;;5002543;28;20045;-86
2022/09/06 13:59:53;;;;;;;2.22;0.93;;;;;;;;;;5018367;28;20033;-85
2022/09/06 14:02:19;;;;;;;1.63;0.77;;;;;;;;;;5001976;28;20105;-86
2022/09/06 14:04:45;;;;;;;3.92;1.02;;;;;;;;;;5018820;28;20025;-86
2022/09/06 14:07:10;;;;;;;1.85;0.95;;;;;;;;;;5018798;28;20669;-85
2022/09/06 14:09:36;;;;;;;2.25;0.80;;;;;;;;;;5018536;28;20124;-86
2022/09/06 14:12:02;;;;;;;2.38;1.00;;;;;;;;;;5002234;28;20048;-86
2022/09/06 14:14:28;;;;;;;2.42;0.82;;;;;;;;;;5018815;28;20491;-85
2022/09/06 14:16:53;;;;;;;2.58;1.10;;;;;;;;;;5001752;28;20063;-85
2022/09/06 14:19:19;;;;;;;1.88;0.70;;;;;;;;;;5001806;28;20517;-85
2022/09/06 14:21:44;;;;;;;2.30;0.90;;;;;;;;;;5017382;28;20049;-86
2022/09/06 14:24:09;;;;;;;2.75;1.10;;;;;;;;;;5001633;28;20033;-85
2022/09/06 14:26:35;;;;;;;3.10;0.85;;;;;;;;;;5017804;28;20041;-86
2022/09/06 14:29:01;;;;;;;1.20;0.60;;;;;;;;;;5017589;28;20029;-86
2022/09/06 14:31:26;;;;;;;2.20;0.98;;;;;;;;;;5001384;28;20124;-86
2022/09/06 14:33:53;;;;;;;1.70;1.00;;;;;;;;;;5001717;28;20041;-85
2022/09/06 14:36:20;;;;;;;2.22;0.90;;;;;;;;;;5018421;28;20059;-85
2022/09/06 14:38:45;;;;;;;2.00;0.73;;;;;;;;;;5001679;28;20033;-86
2022/09/06 14:41:13;;;;;;;1.33;0.60;;;;;;;;;;5033979;28;20048;-85
2022/09/06 14:43:38;;;;;;;2.10;0.82;;;;;;;;;;5001989;28;20132;-84
2022/09/06 14:46:12;;;;;;;2.10;0.90;;;;;;;;;;5017654;28;20041;-85
2022/09/06 14:48:37;;;;;;;2.00;1.05;;;;;;;;;;5001642;28;20041;-85
2022/09/06 14:51:10;;;;;;;2.55;0.88;;;;;;;;;;5001153;28;20117;-85
2022/09/06 14:53:39;;;;;;;0.90;0.50;;;;;;;;;;5001453;28;20131;-84
2022/09/06 14:56:05;;;;;;;1.45;0.70;;;;;;;;;;4985188;28;20479;-85
2022/09/06 14:58:31;;;;;;;1.70;0.80;;;;;;;;;;5001456;28;20037;-85
2022/09/06 15:01:17;;;;;;;1.92;0.60;;;;;;;;;;5000830;28;20579;-85
2022/09/06 15:03:47;;;;;;;1.92;0.82;;;;;;;;;;5018749;28;20055;-85
2022/09/06 15:06:13;;;;;;;2.10;0.57;;;;;;;;;;5002076;28;20089;-84
2022/09/06 15:08:38;;;;;;;2.00;0.80;;;;;;;;;;5017430;28;20521;-84
2022/09/06 15:11:06;;;;;;;2.10;0.88;;;;;;;;;;5017322;28;20037;-84
2022/09/06 15:13:33;;;;;;;1.63;0.80;;;;;;;;;;4985490;28;20068;-85
2022/09/06 15:15:58;;;;;;;1.40;0.82;;;;;;;;;;5017219;28;20175;-85
2022/09/06 15:18:24;;;;;;;1.23;0.70;;;;;;;;;;5000798;28;20048;-85
2022/09/06 15:20:49;;;;;;;1.88;0.73;;;;;;;;;;5000891;28;20124;-85
2022/09/06 15:23:14;;;;;;;1.77;0.93;;;;;;;;;;5016791;28;20098;-85
2022/09/06 15:25:50;;;;;;;1.75;0.60;;;;;;;;;;5017277;28;20115;-85
2022/09/06 15:28:18;;;;;;;2.67;0.57;;;;;;;;;;5000724;28;20032;-84
2022/09/06 15:30:44;;;;;;;2.30;0.75;;;;;;;;;;5017764;28;20045;-85
2022/09/06 15:33:09;;;;;;;1.85;0.60;;;;;;;;;;5000499;28;20049;-85
2022/09/06 15:35:36;;;;;;;1.23;0.50;;;;;;;;;;5017288;28;20064;-85
2022/09/06 15:38:02;;;;;;;2.63;0.95;;;;;;;;;;5001122;28;20086;-83
2022/09/06 15:40:28;;;;;;;1.42;0.50;;;;;;;;;;5021227;28;20083;-84
2022/09/06 15:42:53;;;;;;;2.10;0.73;;;;;;;;;;5020897;28;20448;-85
2022/09/06 15:45:19;;;;;;;2.13;0.80;;;;;;;;;;5020830;28;20067;-85
2022/09/06 15:47:44;;;;;;;2.30;0.70;;;;;;;;;;5004694;28;20041;-85
2022/09/06 15:50:10;;;;;;;3.17;0.68;;;;;;;;;;5021150;28;20116;-84
2022/09/06 15:52:35;;;;;;;1.10;0.50;;;;;;;;;;5004069;28;20078;-85
2022/09/06 15:57:45;;;;;;;1.35;0.35;;;;;;;;;;5009071;28;20116;-85